Doswell, Virginia
Current Conditions -  °F | °C
As of 4:54 AM on Thursday 23 Oct 2014 (Local Time) from KOFP Reporting Station
Scattered Clouds Scattered Clouds  
Wind Chill: 43°   Ceiling: Unl
Heat Index: 46°   Visibility: 10mi
Dew Point: 42°   Wind: 6mph
Humidity: 86%   Direction: 290°WNW
Pressure: 29.92"   Gusts: NA
Location:  37.86°N, 77.46°W
Report Text: KOFP 230854Z AUTO 29005KT 10SM FEW042 SCT080 08/06 A2992 RMK AO2 SLP133 T00780056 56009
Loading
Personal Weather Stations






























Interactive Weather Map
Tropical Storm Tracking
New forecast layout! Learn more

10-Day Weather Forecast

Advertisements
Track Severe Weather on mobile